sensor_id;sensor_type;location;lat;lon;timestamp;pressure;altitude;pressure_sealevel;temperature;humidity
77590;BME280;66746;51.328;12.332;2023-02-01T00:01:50;100358.72;;;3.49;84.42
77590;BME280;66746;51.328;12.332;2023-02-01T00:04:15;100358.69;;;3.50;84.08
77590;BME280;66746;51.328;12.332;2023-02-01T00:06:41;100349.78;;;3.50;84.21
77590;BME280;66746;51.328;12.332;2023-02-01T00:09:07;100355.19;;;3.48;83.62
77590;BME280;66746;51.328;12.332;2023-02-01T00:11:32;100356.09;;;3.46;84.20
77590;BME280;66746;51.328;12.332;2023-02-01T00:13:57;100359.66;;;3.45;84.08
77590;BME280;66746;51.328;12.332;2023-02-01T00:16:24;100350.72;;;3.46;84.02
77590;BME280;66746;51.328;12.332;2023-02-01T00:18:52;100359.63;;;3.48;84.06
77590;BME280;66746;51.328;12.332;2023-02-01T00:21:19;100357.84;;;3.47;84.30
77590;BME280;66746;51.328;12.332;2023-02-01T00:23:46;100363.22;;;3.48;84.62
77590;BME280;66746;51.328;12.332;2023-02-01T00:26:14;100365.00;;;3.48;84.35
77590;BME280;66746;51.328;12.332;2023-02-01T00:28:40;100356.09;;;3.46;83.50
77590;BME280;66746;51.328;12.332;2023-02-01T00:31:06;100354.31;;;3.46;82.92
77590;BME280;66746;51.328;12.332;2023-02-01T00:33:31;100359.63;;;3.48;82.80
77590;BME280;66746;51.328;12.332;2023-02-01T00:35:57;100367.63;;;3.51;81.89
77590;BME280;66746;51.328;12.332;2023-02-01T00:38:22;100364.06;;;3.52;82.55
77590;BME280;66746;51.328;12.332;2023-02-01T00:40:49;100366.72;;;3.53;81.73
77590;BME280;66746;51.328;12.332;2023-02-01T00:43:14;100364.97;;;3.51;81.02
77590;BME280;66746;51.328;12.332;2023-02-01T00:45:40;100368.50;;;3.53;80.71
77590;BME280;66746;51.328;12.332;2023-02-01T00:48:05;100371.16;;;3.57;80.78
77590;BME280;66746;51.328;12.332;2023-02-01T00:50:30;100364.88;;;3.62;80.86
77590;BME280;66746;51.328;12.332;2023-02-01T00:52:56;100368.47;;;3.59;80.67
77590;BME280;66746;51.328;12.332;2023-02-01T00:55:21;100367.59;;;3.57;80.45
77590;BME280;66746;51.328;12.332;2023-02-01T00:57:48;100372.13;;;3.52;81.06
77590;BME280;66746;51.328;12.332;2023-02-01T01:00:14;100374.69;;;3.61;81.13
77590;BME280;66746;51.328;12.332;2023-02-01T01:02:39;100391.59;;;3.69;80.56
77590;BME280;66746;51.328;12.332;2023-02-01T01:05:05;100377.38;;;3.64;80.99
77590;BME280;66746;51.328;12.332;2023-02-01T01:07:30;100388.97;;;3.66;81.31
77590;BME280;66746;51.328;12.332;2023-02-01T01:09:55;100377.34;;;3.66;81.38
77590;BME280;66746;51.328;12.332;2023-02-01T01:12:20;100385.41;;;3.64;81.57
77590;BME280;66746;51.328;12.332;2023-02-01T01:14:47;100385.44;;;3.59;81.82
77590;BME280;66746;51.328;12.332;2023-02-01T01:17:13;100389.91;;;3.62;81.95
77590;BME280;66746;51.328;12.332;2023-02-01T01:19:38;100386.34;;;3.60;82.12
77590;BME280;66746;51.328;12.332;2023-02-01T01:22:03;100387.22;;;3.62;82.41
77590;BME280;66746;51.328;12.332;2023-02-01T01:24:28;100393.47;;;3.61;82.80
77590;BME280;66746;51.328;12.332;2023-02-01T01:26:54;100381.81;;;3.65;82.29
77590;BME280;66746;51.328;12.332;2023-02-01T01:29:19;100382.63;;;3.70;82.15
77590;BME280;66746;51.328;12.332;2023-02-01T01:31:45;100379.00;;;3.77;82.12
77590;BME280;66746;51.328;12.332;2023-02-01T01:34:11;100366.56;;;3.72;82.00
77590;BME280;66746;51.328;12.332;2023-02-01T01:36:36;100369.19;;;3.75;82.17
77590;BME280;66746;51.328;12.332;2023-02-01T01:39:01;100373.72;;;3.71;82.21
77590;BME280;66746;51.328;12.332;2023-02-01T01:41:31;100369.22;;;3.70;81.71
77590;BME280;66746;51.328;12.332;2023-02-01T01:43:58;100364.84;;;3.63;81.57
77590;BME280;66746;51.328;12.332;2023-02-01T01:46:25;100366.66;;;3.61;82.08
77590;BME280;66746;51.328;12.332;2023-02-01T01:48:58;100358.66;;;3.58;81.73
77590;BME280;66746;51.328;12.332;2023-02-01T01:51:25;100345.25;;;3.56;81.71
77590;BME280;66746;51.328;12.332;2023-02-01T01:53:59;100344.38;;;3.54;82.05
77590;BME280;66746;51.328;12.332;2023-02-01T01:56:27;100325.63;;;3.53;81.92
77590;BME280;66746;51.328;12.332;2023-02-01T01:58:54;100329.22;;;3.52;81.55
77590;BME280;66746;51.328;12.332;2023-02-01T02:01:20;100327.44;;;3.51;82.18
77590;BME280;66746;51.328;12.332;2023-02-01T02:03:46;100322.91;;;3.54;82.27
77590;BME280;66746;51.328;12.332;2023-02-01T02:06:17;100329.22;;;3.52;82.29
77590;BME280;66746;51.328;12.332;2023-02-01T02:08:44;100328.31;;;3.53;81.80
77590;BME280;66746;51.328;12.332;2023-02-01T02:11:12;100322.06;;;3.54;81.84
77590;BME280;66746;51.328;12.332;2023-02-01T02:13:41;100307.72;;;3.55;82.02
77590;BME280;66746;51.328;12.332;2023-02-01T02:16:20;100304.97;;;3.63;80.88
77590;BME280;66746;51.328;12.332;2023-02-01T02:18:57;100304.13;;;3.59;81.07
77590;BME280;66746;51.328;12.332;2023-02-01T02:21:44;100304.06;;;3.65;80.92
77590;BME280;66746;51.328;12.332;2023-02-01T02:24:36;100301.34;;;3.67;81.13
77590;BME280;66746;51.328;12.332;2023-02-01T02:27:08;100298.66;;;3.68;80.51
77590;BME280;66746;51.328;12.332;2023-02-01T02:29:53;100304.00;;;3.71;80.14
77590;BME280;66746;51.328;12.332;2023-02-01T02:32:47;100302.19;;;3.70;80.64
77590;BME280;66746;51.328;12.332;2023-02-01T02:35:26;100300.44;;;3.69;80.61
77590;BME280;66746;51.328;12.332;2023-02-01T02:37:56;100299.47;;;3.75;81.02
77590;BME280;66746;51.328;12.332;2023-02-01T02:40:28;100302.19;;;3.73;80.85
77590;BME280;66746;51.328;12.332;2023-02-01T02:43:02;100309.34;;;3.73;80.33
77590;BME280;66746;51.328;12.332;2023-02-01T02:45:37;100290.50;;;3.79;79.90
77590;BME280;66746;51.328;12.332;2023-02-01T02:48:11;100278.00;;;3.78;80.30
77590;BME280;66746;51.328;12.332;2023-02-01T02:50:44;100290.53;;;3.77;80.29
77590;BME280;66746;51.328;12.332;2023-02-01T02:53:15;100298.56;;;3.74;80.33
77590;BME280;66746;51.328;12.332;2023-02-01T02:55:42;100302.19;;;3.70;80.78
77590;BME280;66746;51.328;12.332;2023-02-01T02:58:09;100307.53;;;3.73;80.56
77590;BME280;66746;51.328;12.332;2023-02-01T03:00:36;100304.94;;;3.67;80.51
77590;BME280;66746;51.328;12.332;2023-02-01T03:03:03;100304.88;;;3.72;80.73
77590;BME280;66746;51.328;12.332;2023-02-01T03:05:32;100304.88;;;3.70;80.45
77590;BME280;66746;51.328;12.332;2023-02-01T03:08:04;100293.25;;;3.71;80.73
77590;BME280;66746;51.328;12.332;2023-02-01T03:10:35;100299.50;;;3.73;80.25
77590;BME280;66746;51.328;12.332;2023-02-01T03:13:06;100300.31;;;3.78;80.19
77590;BME280;66746;51.328;12.332;2023-02-01T03:15:36;100302.13;;;3.79;79.97
77590;BME280;66746;51.328;12.332;2023-02-01T03:18:06;100289.59;;;3.81;80.01
77590;BME280;66746;51.328;12.332;2023-02-01T03:20:38;100292.25;;;3.83;80.19
77590;BME280;66746;51.328;12.332;2023-02-01T03:23:07;100296.69;;;3.85;80.04
77590;BME280;66746;51.328;12.332;2023-02-01T03:25:34;100311.00;;;3.86;79.87
77590;BME280;66746;51.328;12.332;2023-02-01T03:28:02;100291.25;;;3.91;78.52
77590;BME280;66746;51.328;12.332;2023-02-01T03:30:31;100289.44;;;3.93;79.28
77590;BME280;66746;51.328;12.332;2023-02-01T03:33:00;100285.88;;;3.91;78.97
77590;BME280;66746;51.328;12.332;2023-02-01T03:35:28;100285.81;;;3.97;78.70
77590;BME280;66746;51.328;12.332;2023-02-01T03:38:01;100282.16;;;4.03;77.95
77590;BME280;66746;51.328;12.332;2023-02-01T03:40:33;100283.94;;;4.02;78.13
77590;BME280;66746;51.328;12.332;2023-02-01T03:43:02;100276.72;;;4.07;77.14
77590;BME280;66746;51.328;12.332;2023-02-01T03:45:34;100269.66;;;4.03;77.99
77590;BME280;66746;51.328;12.332;2023-02-01T03:48:02;100262.50;;;4.02;77.62
77590;BME280;66746;51.328;12.332;2023-02-01T03:50:30;100274.13;;;4.03;77.74
77590;BME280;66746;51.328;12.332;2023-02-01T03:53:00;100263.38;;;4.03;77.50
77590;BME280;66746;51.328;12.332;2023-02-01T03:55:29;100265.19;;;4.01;77.65
77590;BME280;66746;51.328;12.332;2023-02-01T03:57:59;100266.13;;;3.97;77.45
77590;BME280;66746;51.328;12.332;2023-02-01T04:00:26;100260.75;;;3.98;77.67
77590;BME280;66746;51.328;12.332;2023-02-01T04:02:52;100244.72;;;3.95;77.51
77590;BME280;66746;51.328;12.332;2023-02-01T04:05:18;100238.44;;;3.95;77.60
77590;BME280;66746;51.328;12.332;2023-02-01T04:07:44;100249.22;;;3.93;77.38
77590;BME280;66746;51.328;12.332;2023-02-01T04:10:10;100249.19;;;3.92;78.21
77590;BME280;66746;51.328;12.332;2023-02-01T04:12:37;100245.69;;;3.87;78.18
77590;BME280;66746;51.328;12.332;2023-02-01T04:15:03;100242.09;;;3.88;78.08
77590;BME280;66746;51.328;12.332;2023-02-01T04:17:29;100243.84;;;3.93;77.17
77590;BME280;66746;51.328;12.332;2023-02-01T04:19:55;100241.19;;;3.90;77.60
77590;BME280;66746;51.328;12.332;2023-02-01T04:22:20;100237.59;;;3.91;78.20
77590;BME280;66746;51.328;12.332;2023-02-01T04:24:45;100241.19;;;3.90;77.56
77590;BME280;66746;51.328;12.332;2023-02-01T04:27:11;100220.63;;;3.91;77.30
77590;BME280;66746;51.328;12.332;2023-02-01T04:29:37;100215.22;;;3.92;77.32
77590;BME280;66746;51.328;12.332;2023-02-01T04:32:03;100227.78;;;3.90;77.45
77590;BME280;66746;51.328;12.332;2023-02-01T04:34:28;100225.09;;;3.90;77.87
77590;BME280;66746;51.328;12.332;2023-02-01T04:36:54;100218.81;;;3.90;77.83
77590;BME280;66746;51.328;12.332;2023-02-01T04:39:19;100215.31;;;3.86;77.52
77590;BME280;66746;51.328;12.332;2023-02-01T04:41:44;100221.50;;;3.91;77.39
77590;BME280;66746;51.328;12.332;2023-02-01T04:44:13;100206.22;;;3.98;76.66
77590;BME280;66746;51.328;12.332;2023-02-01T04:46:41;100203.59;;;3.93;77.86
77590;BME280;66746;51.328;12.332;2023-02-01T04:49:07;100190.22;;;3.90;77.10
77590;BME280;66746;51.328;12.332;2023-02-01T04:51:33;100199.09;;;3.95;77.34
77590;BME280;66746;51.328;12.332;2023-02-01T04:53:58;100195.56;;;3.93;77.50
77590;BME280;66746;51.328;12.332;2023-02-01T04:56:23;100195.56;;;3.92;77.03
77590;BME280;66746;51.328;12.332;2023-02-01T04:58:49;100198.25;;;3.90;77.16
77590;BME280;66746;51.328;12.332;2023-02-01T05:01:14;100203.59;;;3.93;77.03
77590;BME280;66746;51.328;12.332;2023-02-01T05:03:41;100192.91;;;3.90;76.80
77590;BME280;66746;51.328;12.332;2023-02-01T05:06:06;100189.38;;;3.87;77.89
77590;BME280;66746;51.328;12.332;2023-02-01T05:08:32;100191.16;;;3.89;77.00
77590;BME280;66746;51.328;12.332;2023-02-01T05:10:57;100198.31;;;3.87;77.26
77590;BME280;66746;51.328;12.332;2023-02-01T05:13:22;100201.91;;;3.85;77.08
77590;BME280;66746;51.328;12.332;2023-02-01T05:15:50;100195.72;;;3.81;78.24
77590;BME280;66746;51.328;12.332;2023-02-01T05:18:15;100174.38;;;3.74;77.83
77590;BME280;66746;51.328;12.332;2023-02-01T05:20:42;100187.66;;;3.81;78.52
77590;BME280;66746;51.328;12.332;2023-02-01T05:23:07;100194.84;;;3.79;78.74
77590;BME280;66746;51.328;12.332;2023-02-01T05:25:32;100185.94;;;3.77;78.40
77590;BME280;66746;51.328;12.332;2023-02-01T05:27:57;100193.13;;;3.75;78.94
77590;BME280;66746;51.328;12.332;2023-02-01T05:30:23;100177.91;;;3.74;78.88
77590;BME280;66746;51.328;12.332;2023-02-01T05:32:49;100168.13;;;3.73;79.80
77590;BME280;66746;51.328;12.332;2023-02-01T05:35:15;100191.31;;;3.74;79.74
77590;BME280;66746;51.328;12.332;2023-02-01T05:37:41;100176.19;;;3.72;79.67
77590;BME280;66746;51.328;12.332;2023-02-01T05:40:08;100185.09;;;3.72;80.25
77590;BME280;66746;51.328;12.332;2023-02-01T05:42:33;100185.09;;;3.72;80.48
77590;BME280;66746;51.328;12.332;2023-02-01T05:44:58;100169.91;;;3.73;79.74
77590;BME280;66746;51.328;12.332;2023-02-01T05:47:24;100175.22;;;3.74;79.76
77590;BME280;66746;51.328;12.332;2023-02-01T05:49:49;100171.69;;;3.72;79.53
77590;BME280;66746;51.328;12.332;2023-02-01T05:52:14;100176.16;;;3.73;79.51
77590;BME280;66746;51.328;12.332;2023-02-01T05:54:41;100185.09;;;3.74;79.94
77590;BME280;66746;51.328;12.332;2023-02-01T05:57:07;100172.50;;;3.79;79.41
77590;BME280;66746;51.328;12.332;2023-02-01T05:59:32;100165.31;;;3.81;79.84
77590;BME280;66746;51.328;12.332;2023-02-01T06:01:57;100168.03;;;3.79;79.79
77590;BME280;66746;51.328;12.332;2023-02-01T06:04:23;100168.03;;;3.79;79.34
77590;BME280;66746;51.328;12.332;2023-02-01T06:06:48;100165.31;;;3.84;78.95
77590;BME280;66746;51.328;12.332;2023-02-01T06:09:13;100175.06;;;3.86;79.20
77590;BME280;66746;51.328;12.332;2023-02-01T06:11:40;100169.72;;;3.86;79.25
77590;BME280;66746;51.328;12.332;2023-02-01T06:14:05;100172.41;;;3.86;79.23
77590;BME280;66746;51.328;12.332;2023-02-01T06:16:30;100161.66;;;3.86;79.21
77590;BME280;66746;51.328;12.332;2023-02-01T06:18:56;100176.88;;;3.87;79.58
77590;BME280;66746;51.328;12.332;2023-02-01T06:21:21;100165.19;;;3.90;79.70
77590;BME280;66746;51.328;12.332;2023-02-01T06:23:46;100166.06;;;3.90;79.32
77590;BME280;66746;51.328;12.332;2023-02-01T06:26:11;100159.84;;;3.88;79.85
77590;BME280;66746;51.328;12.332;2023-02-01T06:28:38;100147.28;;;3.92;78.97
77590;BME280;66746;51.328;12.332;2023-02-01T06:31:04;100148.19;;;3.91;79.15
77590;BME280;66746;51.328;12.332;2023-02-01T06:33:29;100133.00;;;3.91;79.68
77590;BME280;66746;51.328;12.332;2023-02-01T06:35:58;100139.22;;;3.93;79.12
77590;BME280;66746;51.328;12.332;2023-02-01T06:38:24;100141.06;;;3.88;79.44
77590;BME280;66746;51.328;12.332;2023-02-01T06:40:52;100151.78;;;3.90;79.79
77590;BME280;66746;51.328;12.332;2023-02-01T06:43:17;100145.53;;;3.91;79.54
77590;BME280;66746;51.328;12.332;2023-02-01T06:45:44;100146.41;;;3.91;79.07
77590;BME280;66746;51.328;12.332;2023-02-01T06:48:09;100142.78;;;3.95;78.54
77590;BME280;66746;51.328;12.332;2023-02-01T06:50:34;100142.78;;;3.95;78.51
77590;BME280;66746;51.328;12.332;2023-02-01T06:53:00;100133.88;;;3.93;77.93
77590;BME280;66746;51.328;12.332;2023-02-01T06:55:25;100149.91;;;3.96;79.23
77590;BME280;66746;51.328;12.332;2023-02-01T06:57:53;100141.78;;;4.02;78.72
77590;BME280;66746;51.328;12.332;2023-02-01T07:00:19;100146.25;;;4.03;78.55
77590;BME280;66746;51.328;12.332;2023-02-01T07:02:46;100137.34;;;4.01;78.24
77590;BME280;66746;51.328;12.332;2023-02-01T07:05:11;100132.00;;;3.98;78.06
77590;BME280;66746;51.328;12.332;2023-02-01T07:07:36;100141.78;;;4.02;78.25
77590;BME280;66746;51.328;12.332;2023-02-01T07:10:02;100139.03;;;4.05;78.21
77590;BME280;66746;51.328;12.332;2023-02-01T07:12:27;100130.06;;;4.08;78.10
77590;BME280;66746;51.328;12.332;2023-02-01T07:15:01;100122.94;;;4.05;78.06
77590;BME280;66746;51.328;12.332;2023-02-01T07:17:28;100128.25;;;4.08;78.10
77590;BME280;66746;51.328;12.332;2023-02-01T07:19:55;100117.56;;;4.05;78.44
77590;BME280;66746;51.328;12.332;2023-02-01T07:22:20;100119.28;;;4.11;77.85
77590;BME280;66746;51.328;12.332;2023-02-01T07:24:46;100121.00;;;4.13;77.96
77590;BME280;66746;51.328;12.332;2023-02-01T07:27:12;100129.84;;;4.21;77.03
77590;BME280;66746;51.328;12.332;2023-02-01T07:29:37;100124.47;;;4.21;77.41
77590;BME280;66746;51.328;12.332;2023-02-01T07:32:02;100127.97;;;4.26;77.82
77590;BME280;66746;51.328;12.332;2023-02-01T07:34:28;100124.38;;;4.27;76.70
77590;BME280;66746;51.328;12.332;2023-02-01T07:36:55;100115.47;;;4.25;77.56
77590;BME280;66746;51.328;12.332;2023-02-01T07:39:20;100110.97;;;4.27;76.80
77590;BME280;66746;51.328;12.332;2023-02-01T07:41:45;100106.41;;;4.32;76.43
77590;BME280;66746;51.328;12.332;2023-02-01T07:44:12;100112.50;;;4.42;76.27
77590;BME280;66746;51.328;12.332;2023-02-01T07:46:37;100095.59;;;4.38;75.68
77590;BME280;66746;51.328;12.332;2023-02-01T07:49:03;100102.63;;;4.42;76.14
77590;BME280;66746;51.328;12.332;2023-02-01T07:51:28;100099.91;;;4.45;75.51
77590;BME280;66746;51.328;12.332;2023-02-01T07:53:55;100108.69;;;4.55;75.58
77590;BME280;66746;51.328;12.332;2023-02-01T07:56:20;100109.59;;;4.56;75.60
77590;BME280;66746;51.328;12.332;2023-02-01T07:58:47;100098.78;;;4.59;75.93
77590;BME280;66746;51.328;12.332;2023-02-01T08:01:14;100108.66;;;4.57;75.70
77590;BME280;66746;51.328;12.332;2023-02-01T08:03:40;100119.38;;;4.60;75.76
77590;BME280;66746;51.328;12.332;2023-02-01T08:06:05;100127.41;;;4.60;76.27
77590;BME280;66746;51.328;12.332;2023-02-01T08:08:31;100121.09;;;4.62;75.91
77590;BME280;66746;51.328;12.332;2023-02-01T08:11:01;100117.53;;;4.62;76.79
77590;BME280;66746;51.328;12.332;2023-02-01T08:13:27;100116.69;;;4.60;77.01
77590;BME280;66746;51.328;12.332;2023-02-01T08:15:57;100122.06;;;4.60;76.82
77590;BME280;66746;51.328;12.332;2023-02-01T08:18:22;100122.09;;;4.57;76.99
77590;BME280;66746;51.328;12.332;2023-02-01T08:20:48;100131.06;;;4.56;76.73
77590;BME280;66746;51.328;12.332;2023-02-01T08:23:13;100109.63;;;4.53;77.21
77590;BME280;66746;51.328;12.332;2023-02-01T08:25:38;100120.38;;;4.53;77.48
77590;BME280;66746;51.328;12.332;2023-02-01T08:28:05;100114.13;;;4.52;78.07
77590;BME280;66746;51.328;12.332;2023-02-01T08:30:36;100119.50;;;4.50;77.91
77590;BME280;66746;51.328;12.332;2023-02-01T08:33:01;100118.72;;;4.45;79.70
77590;BME280;66746;51.328;12.332;2023-02-01T08:35:27;100125.00;;;4.43;80.70
77590;BME280;66746;51.328;12.332;2023-02-01T08:37:52;100132.19;;;4.41;81.42
77590;BME280;66746;51.328;12.332;2023-02-01T08:40:17;100137.66;;;4.35;82.12
77590;BME280;66746;51.328;12.332;2023-02-01T08:42:43;100129.81;;;4.24;83.27
77590;BME280;66746;51.328;12.332;2023-02-01T08:45:10;100132.59;;;4.18;84.17
77590;BME280;66746;51.328;12.332;2023-02-01T08:47:35;100143.50;;;4.06;85.97
77590;BME280;66746;51.328;12.332;2023-02-01T08:50:00;100139.22;;;3.93;86.28
77590;BME280;66746;51.328;12.332;2023-02-01T08:52:26;100131.31;;;3.83;87.65
77590;BME280;66746;51.328;12.332;2023-02-01T08:54:51;100135.97;;;3.70;89.30
77590;BME280;66746;51.328;12.332;2023-02-01T08:57:17;100143.16;;;3.67;88.93
77590;BME280;66746;51.328;12.332;2023-02-01T08:59:43;100148.69;;;3.56;88.99
77590;BME280;66746;51.328;12.332;2023-02-01T09:02:12;100145.13;;;3.54;90.00
77590;BME280;66746;51.328;12.332;2023-02-01T09:04:37;100136.22;;;3.52;90.23
77590;BME280;66746;51.328;12.332;2023-02-01T09:07:02;100141.63;;;3.49;90.14
77590;BME280;66746;51.328;12.332;2023-02-01T09:09:31;100142.53;;;3.48;90.78
77590;BME280;66746;51.328;12.332;2023-02-01T09:11:56;100147.03;;;3.46;91.16
77590;BME280;66746;51.328;12.332;2023-02-01T09:14:21;100157.69;;;3.49;91.19
77590;BME280;66746;51.328;12.332;2023-02-01T09:16:46;100145.09;;;3.57;90.41
77590;BME280;66746;51.328;12.332;2023-02-01T09:19:13;100150.44;;;3.57;90.96
77590;BME280;66746;51.328;12.332;2023-02-01T09:21:39;100151.31;;;3.59;90.49
77590;BME280;66746;51.328;12.332;2023-02-01T09:24:05;100160.25;;;3.59;90.71
77590;BME280;66746;51.328;12.332;2023-02-01T09:26:30;100170.94;;;3.61;90.06
77590;BME280;66746;51.328;12.332;2023-02-01T09:28:55;100161.16;;;3.60;91.00
77590;BME280;66746;51.328;12.332;2023-02-01T09:31:21;100173.63;;;3.61;90.71
77590;BME280;66746;51.328;12.332;2023-02-01T09:33:46;100168.25;;;3.64;91.48
77590;BME280;66746;51.328;12.332;2023-02-01T09:36:12;100160.06;;;3.73;91.19
77590;BME280;66746;51.328;12.332;2023-02-01T09:38:38;100177.00;;;3.77;91.07
77590;BME280;66746;51.328;12.332;2023-02-01T09:41:10;100171.53;;;3.84;89.85
77590;BME280;66746;51.328;12.332;2023-02-01T09:43:48;100179.38;;;3.99;90.28
77590;BME280;66746;51.328;12.332;2023-02-01T09:46:23;100166.63;;;4.15;89.68
77590;BME280;66746;51.328;12.332;2023-02-01T09:48:54;100165.59;;;4.23;88.86
77590;BME280;66746;51.328;12.332;2023-02-01T09:51:23;100162.63;;;4.41;87.68
77590;BME280;66746;51.328;12.332;2023-02-01T09:53:53;100174.16;;;4.46;87.76
77590;BME280;66746;51.328;12.332;2023-02-01T09:56:25;100167.13;;;4.39;87.02
77590;BME280;66746;51.328;12.332;2023-02-01T09:58:56;100181.41;;;4.41;87.37
77590;BME280;66746;51.328;12.332;2023-02-01T10:01:25;100171.63;;;4.37;86.61
77590;BME280;66746;51.328;12.332;2023-02-01T10:03:56;100174.25;;;4.42;86.88
77590;BME280;66746;51.328;12.332;2023-02-01T10:06:36;100162.56;;;4.44;87.03
77590;BME280;66746;51.328;12.332;2023-02-01T10:09:16;100163.44;;;4.45;86.40
77590;BME280;66746;51.328;12.332;2023-02-01T10:11:55;100171.25;;;4.60;86.86
77590;BME280;66746;51.328;12.332;2023-02-01T10:14:37;100166.56;;;4.73;85.97
77590;BME280;66746;51.328;12.332;2023-02-01T10:17:18;100167.44;;;4.75;85.25
77590;BME280;66746;51.328;12.332;2023-02-01T10:19:53;100164.56;;;4.84;85.74
77590;BME280;66746;51.328;12.332;2023-02-01T10:22:33;100165.34;;;4.90;84.55
77590;BME280;66746;51.328;12.332;2023-02-01T10:25:07;100170.84;;;4.84;84.86
77590;BME280;66746;51.328;12.332;2023-02-01T10:27:40;100168.06;;;4.89;85.70
77590;BME280;66746;51.328;12.332;2023-02-01T10:30:16;100173.38;;;4.92;85.13
77590;BME280;66746;51.328;12.332;2023-02-01T10:32:43;100177.69;;;5.02;84.56
77590;BME280;66746;51.328;12.332;2023-02-01T10:35:13;100166.56;;;5.21;83.11
77590;BME280;66746;51.328;12.332;2023-02-01T10:37:42;100164.25;;;5.90;82.54
77590;BME280;66746;51.328;12.332;2023-02-01T10:40:15;100156.91;;;5.98;80.72
77590;BME280;66746;51.328;12.332;2023-02-01T10:42:41;100167.09;;;5.83;80.43
77590;BME280;66746;51.328;12.332;2023-02-01T10:45:13;100159.00;;;5.84;81.65
77590;BME280;66746;51.328;12.332;2023-02-01T10:47:39;100169.78;;;5.83;79.14
77590;BME280;66746;51.328;12.332;2023-02-01T10:50:14;100174.41;;;5.76;79.39
77590;BME280;66746;51.328;12.332;2023-02-01T10:52:45;100159.09;;;5.78;78.63
77590;BME280;66746;51.328;12.332;2023-02-01T10:55:28;100149.34;;;5.74;75.47
77590;BME280;66746;51.328;12.332;2023-02-01T10:57:56;100140.00;;;5.92;77.29
77590;BME280;66746;51.328;12.332;2023-02-01T11:00:21;100125.28;;;6.45;74.69
77590;BME280;66746;51.328;12.332;2023-02-01T11:02:47;100131.66;;;6.76;74.57
77590;BME280;66746;51.328;12.332;2023-02-01T11:05:12;100127.31;;;7.04;71.15
77590;BME280;66746;51.328;12.332;2023-02-01T11:07:39;100142.16;;;7.20;72.18
77590;BME280;66746;51.328;12.332;2023-02-01T11:10:34;100130.53;;;7.49;67.21
77590;BME280;66746;51.328;12.332;2023-02-01T11:13:01;100132.69;;;7.36;69.09
77590;BME280;66746;51.328;12.332;2023-02-01T11:15:29;100134.13;;;6.85;71.01
77590;BME280;66746;51.328;12.332;2023-02-01T11:17:54;100138.34;;;6.61;71.10
77590;BME280;66746;51.328;12.332;2023-02-01T11:20:32;100167.47;;;6.46;71.13
77590;BME280;66746;51.328;12.332;2023-02-01T11:22:59;100150.84;;;6.27;72.44
77590;BME280;66746;51.328;12.332;2023-02-01T11:25:27;100133.25;;;6.12;73.02
77590;BME280;66746;51.328;12.332;2023-02-01T11:27:54;100136.94;;;6.08;72.46
77590;BME280;66746;51.328;12.332;2023-02-01T11:30:29;100150.97;;;6.22;72.95
77590;BME280;66746;51.328;12.332;2023-02-01T11:32:56;100139.53;;;6.50;72.17
77590;BME280;66746;51.328;12.332;2023-02-01T11:35:21;100142.47;;;6.74;69.95
77590;BME280;66746;51.328;12.332;2023-02-01T11:37:52;100138.94;;;7.06;68.97
77590;BME280;66746;51.328;12.332;2023-02-01T11:40:25;100136.44;;;7.31;68.70
77590;BME280;66746;51.328;12.332;2023-02-01T11:42:57;100124.81;;;7.30;68.66
77590;BME280;66746;51.328;12.332;2023-02-01T11:45:26;100133.91;;;7.26;69.07
77590;BME280;66746;51.328;12.332;2023-02-01T11:47:52;100142.53;;;7.06;69.45
77590;BME280;66746;51.328;12.332;2023-02-01T11:50:28;100140.88;;;7.01;69.55
77590;BME280;66746;51.328;12.332;2023-02-01T11:53:08;100129.22;;;6.99;69.30
77590;BME280;66746;51.328;12.332;2023-02-01T11:55:42;100117.88;;;6.88;68.59
77590;BME280;66746;51.328;12.332;2023-02-01T11:58:23;100121.50;;;6.87;68.17
77590;BME280;66746;51.328;12.332;2023-02-01T12:01:07;100137.53;;;6.91;70.14
77590;BME280;66746;51.328;12.332;2023-02-01T12:03:49;100121.81;;;6.75;69.96
77590;BME280;66746;51.328;12.332;2023-02-01T12:06:18;100129.13;;;6.70;70.63
77590;BME280;66746;51.328;12.332;2023-02-01T12:09:18;100115.06;;;6.59;71.42
77590;BME280;66746;51.328;12.332;2023-02-01T12:11:55;100120.34;;;6.63;71.50
77590;BME280;66746;51.328;12.332;2023-02-01T12:14:34;100126.41;;;6.71;70.98
77590;BME280;66746;51.328;12.332;2023-02-01T12:17:39;100123.66;;;6.73;70.18
77590;BME280;66746;51.328;12.332;2023-02-01T12:20:16;100117.28;;;6.77;69.26
77590;BME280;66746;51.328;12.332;2023-02-01T12:22:55;100112.03;;;6.71;71.01
77590;BME280;66746;51.328;12.332;2023-02-01T12:25:34;100097.72;;;6.69;68.84
77590;BME280;66746;51.328;12.332;2023-02-01T12:28:22;100100.56;;;6.63;68.90
77590;BME280;66746;51.328;12.332;2023-02-01T12:31:06;100094.34;;;6.61;68.88
77590;BME280;66746;51.328;12.332;2023-02-01T12:33:46;100090.75;;;6.62;68.00
77590;BME280;66746;51.328;12.332;2023-02-01T12:36:16;100086.22;;;6.62;66.23
77590;BME280;66746;51.328;12.332;2023-02-01T12:38:54;100071.84;;;6.63;68.30
77590;BME280;66746;51.328;12.332;2023-02-01T12:41:36;100078.94;;;6.66;68.44
77590;BME280;66746;51.328;12.332;2023-02-01T12:44:11;100073.53;;;6.67;66.94
77590;BME280;66746;51.328;12.332;2023-02-01T12:46:49;100083.25;;;6.73;66.08
77590;BME280;66746;51.328;12.332;2023-02-01T12:49:20;100080.75;;;6.65;66.16
77590;BME280;66746;51.328;12.332;2023-02-01T12:51:49;100070.84;;;6.67;65.33
77590;BME280;66746;51.328;12.332;2023-02-01T12:54:19;100066.28;;;6.69;64.88
77590;BME280;66746;51.328;12.332;2023-02-01T12:56:48;100064.38;;;6.73;64.56
77590;BME280;66746;51.328;12.332;2023-02-01T12:59:19;100065.28;;;6.73;64.39